createdAt,value
2018-12-19T00:02:17.428Z,24.27
2018-12-19T00:04:44.086Z,24.12
2018-12-19T00:07:10.769Z,23.45
2018-12-19T00:09:37.424Z,24.72
2018-12-19T00:12:04.088Z,23.73
2018-12-19T00:14:30.773Z,24.95
2018-12-19T00:16:57.438Z,25.97
2018-12-19T00:19:24.177Z,25.95
2018-12-19T00:21:50.847Z,26.23
2018-12-19T00:24:17.505Z,25.20
2018-12-19T00:26:44.189Z,25.35
2018-12-19T00:29:10.858Z,25.97
2018-12-19T00:31:37.525Z,27.20
2018-12-19T00:34:04.200Z,26.17
2018-12-19T00:36:31.039Z,25.75
2018-12-19T00:38:57.697Z,26.15
2018-12-19T00:41:24.369Z,25.08
2018-12-19T00:43:51.035Z,24.05
2018-12-19T00:46:17.730Z,25.88
2018-12-19T00:48:44.396Z,24.43
2018-12-19T00:51:11.048Z,25.40
2018-12-19T00:53:37.717Z,23.80
2018-12-19T00:56:04.391Z,24.60
2018-12-19T00:58:31.085Z,24.77
2018-12-19T01:00:57.753Z,26.20
2018-12-19T01:03:24.409Z,24.98
2018-12-19T01:05:51.080Z,27.00
2018-12-19T01:08:17.747Z,27.02
2018-12-19T01:10:44.518Z,24.90
2018-12-19T01:13:11.173Z,26.10
2018-12-19T01:15:37.846Z,26.00
2018-12-19T01:18:04.534Z,24.80
2018-12-19T01:20:31.204Z,24.85
2018-12-19T01:22:57.889Z,24.67
2018-12-19T01:25:24.544Z,24.43
2018-12-19T01:27:51.262Z,25.82
2018-12-19T01:30:17.941Z,26.95
2018-12-19T01:32:44.600Z,24.92
2018-12-19T01:35:11.383Z,27.10
2018-12-19T01:37:38.050Z,25.37
2018-12-19T01:40:05.485Z,25.52
2018-12-19T01:42:32.158Z,25.52
2018-12-19T01:44:58.825Z,24.67
2018-12-19T01:47:25.516Z,25.62
2018-12-19T01:49:52.173Z,27.07
2018-12-19T01:52:18.838Z,25.60
2018-12-19T01:54:45.538Z,26.02
2018-12-19T01:57:12.194Z,24.98
2018-12-19T01:59:38.856Z,26.73
2018-12-19T02:02:05.560Z,25.40
2018-12-19T02:04:32.218Z,26.77
2018-12-19T02:06:58.889Z,28.25
2018-12-19T02:09:28.883Z,24.37
2018-12-19T02:11:54.273Z,28.57
2018-12-19T02:14:20.960Z,27.50
2018-12-19T02:16:47.630Z,26.62
2018-12-19T02:19:14.294Z,26.40
2018-12-19T02:21:40.978Z,26.30
2018-12-19T02:24:07.641Z,27.25
2018-12-19T02:26:34.305Z,27.02
2018-12-19T02:29:00.984Z,26.23
2018-12-19T02:31:27.650Z,26.82
2018-12-19T02:33:54.590Z,27.60
2018-12-19T02:36:21.261Z,26.75
2018-12-19T02:38:47.951Z,28.62
2018-12-19T02:41:14.635Z,26.90
2018-12-19T02:43:41.288Z,28.17
2018-12-19T02:46:07.958Z,28.67
2018-12-19T02:48:34.648Z,26.23
2018-12-19T02:51:01.349Z,25.90
2018-12-19T02:53:28.128Z,26.87
2018-12-19T02:55:54.800Z,26.48
2018-12-19T02:58:21.467Z,26.87
2018-12-19T03:00:48.145Z,27.93
2018-12-19T03:03:14.813Z,27.07
2018-12-19T03:05:41.480Z,27.60
2018-12-19T03:08:08.167Z,29.77
2018-12-19T03:10:34.838Z,26.97
2018-12-19T03:13:01.527Z,29.02
2018-12-19T03:15:28.199Z,26.48
2018-12-19T03:17:54.889Z,27.02
2018-12-19T03:20:21.671Z,25.85
2018-12-19T03:22:48.349Z,25.55
2018-12-19T03:25:15.034Z,26.27
2018-12-19T03:27:41.741Z,26.70
2018-12-19T03:30:08.403Z,26.48
2018-12-19T03:32:35.087Z,30.50
2018-12-19T03:35:01.754Z,27.40
2018-12-19T03:37:28.446Z,27.60
2018-12-19T03:39:55.105Z,26.50
2018-12-19T03:42:21.766Z,26.52
2018-12-19T03:44:48.457Z,26.97
2018-12-19T03:47:15.112Z,24.15
2018-12-19T03:49:42.098Z,24.57
2018-12-19T03:52:08.759Z,25.15
2018-12-19T03:54:35.502Z,24.65
2018-12-19T03:57:02.454Z,23.52
2018-12-19T03:59:29.108Z,24.82
2018-12-19T04:01:55.799Z,24.07
2018-12-19T04:04:22.458Z,24.85
2018-12-19T04:06:49.124Z,23.92
2018-12-19T04:09:15.803Z,24.43
2018-12-19T04:11:42.466Z,24.25
2018-12-19T04:14:09.159Z,27.02
2018-12-19T04:16:35.822Z,32.00
2018-12-19T04:19:02.490Z,39.70
2018-12-19T04:21:29.183Z,34.78
2018-12-19T04:23:55.861Z,29.85
2018-12-19T04:26:22.558Z,28.73
2018-12-19T04:28:49.236Z,29.27
2018-12-19T04:31:15.904Z,26.50
2018-12-19T04:33:42.585Z,32.23
2018-12-19T04:36:09.431Z,33.78
2018-12-19T04:38:36.266Z,26.85
2018-12-19T04:41:02.957Z,26.15
2018-12-19T04:43:29.613Z,27.42
2018-12-19T04:45:56.273Z,25.05
2018-12-19T04:48:22.952Z,29.20
2018-12-19T04:50:49.612Z,25.40
2018-12-19T04:53:16.268Z,28.17
2018-12-19T04:55:42.958Z,27.13
2018-12-19T04:58:09.633Z,26.52
2018-12-19T05:00:36.306Z,25.80
2018-12-19T05:03:02.995Z,26.77
2018-12-19T05:05:29.662Z,25.85
2018-12-19T05:07:56.523Z,24.95
2018-12-19T05:10:23.301Z,25.65
2018-12-19T05:12:50.041Z,27.77
2018-12-19T05:15:16.716Z,28.55
2018-12-19T05:17:43.506Z,27.75
2018-12-19T05:20:10.752Z,26.23
2018-12-19T05:22:37.442Z,29.98
2018-12-19T05:25:07.009Z,29.40
2018-12-19T05:27:33.762Z,27.73
2018-12-19T05:30:00.439Z,30.27
2018-12-19T05:32:27.097Z,29.57
2018-12-19T05:34:53.782Z,29.70
2018-12-19T05:37:20.461Z,29.67
2018-12-19T05:39:47.146Z,28.60
2018-12-19T05:42:13.821Z,30.02
2018-12-19T05:44:40.480Z,30.15
2018-12-19T05:47:08.508Z,31.05
2018-12-19T05:49:35.701Z,70.87
2018-12-19T05:52:02.496Z,65.97
2018-12-19T05:54:29.177Z,33.25
2018-12-19T05:56:55.852Z,30.90
2018-12-19T05:59:22.537Z,32.50
2018-12-19T06:01:49.203Z,32.00
2018-12-19T06:04:15.870Z,30.92
2018-12-19T06:06:42.548Z,33.10
2018-12-19T06:09:09.213Z,33.88
2018-12-19T06:11:35.906Z,34.33
2018-12-19T06:14:02.574Z,32.67
2018-12-19T06:16:29.238Z,31.93
2018-12-19T06:18:55.923Z,35.95
2018-12-19T06:21:22.573Z,33.05
2018-12-19T06:23:49.266Z,33.05
2018-12-19T06:26:15.935Z,32.73
2018-12-19T06:28:42.588Z,32.30
2018-12-19T06:31:09.289Z,32.38
2018-12-19T06:33:36.537Z,30.95
2018-12-19T06:36:03.313Z,33.92
2018-12-19T06:38:29.982Z,33.90
2018-12-19T06:40:56.644Z,35.43
2018-12-19T06:43:23.337Z,32.58
2018-12-19T06:45:49.993Z,33.92
2018-12-19T06:48:16.649Z,34.85
2018-12-19T06:50:43.353Z,35.00
2018-12-19T06:53:10.009Z,36.28
2018-12-19T06:55:36.823Z,37.93
2018-12-19T06:58:03.506Z,36.95
2018-12-19T07:00:30.196Z,34.43
2018-12-19T07:02:56.855Z,35.63
2018-12-19T07:05:23.584Z,35.50
2018-12-19T07:07:50.237Z,34.92
2018-12-19T07:10:16.898Z,35.08
2018-12-19T07:12:43.581Z,33.95
2018-12-19T07:15:10.253Z,32.85
2018-12-19T07:17:36.931Z,33.73
2018-12-19T07:20:03.617Z,30.85
2018-12-19T07:22:30.286Z,34.25
2018-12-19T07:24:57.002Z,31.95
2018-12-19T07:27:23.661Z,32.70
2018-12-19T07:29:50.332Z,32.45
2018-12-19T07:32:17.009Z,32.20
2018-12-19T07:34:44.338Z,33.58
2018-12-19T07:37:11.265Z,34.23
2018-12-19T07:39:38.043Z,34.33
2018-12-19T07:42:04.710Z,35.70
2018-12-19T07:44:31.373Z,34.75
2018-12-19T07:46:58.062Z,34.33
2018-12-19T07:49:24.734Z,34.70
2018-12-19T07:51:51.449Z,33.88
2018-12-19T07:54:18.106Z,34.00
2018-12-19T07:56:44.789Z,33.33
2018-12-19T07:59:11.450Z,33.65
2018-12-19T08:01:38.109Z,31.62
2018-12-19T08:04:05.089Z,33.53
2018-12-19T08:06:31.767Z,33.73
2018-12-19T08:08:58.444Z,35.30
2018-12-19T08:11:25.094Z,34.33
2018-12-19T08:13:51.786Z,32.65
2018-12-19T08:16:18.444Z,35.92
2018-12-19T08:18:45.097Z,32.17
2018-12-19T08:21:11.775Z,32.65
2018-12-19T08:23:38.445Z,34.25
2018-12-19T08:26:05.230Z,30.25
2018-12-19T08:28:31.927Z,33.30
2018-12-19T08:30:58.610Z,30.68
2018-12-19T08:33:25.269Z,34.18
2018-12-19T08:35:51.954Z,32.83
2018-12-19T08:38:18.637Z,33.48
2018-12-19T08:40:45.317Z,33.28
2018-12-19T08:43:11.986Z,34.35
2018-12-19T08:45:39.211Z,32.23
2018-12-19T08:48:05.897Z,34.05
2018-12-19T08:50:32.557Z,31.65
2018-12-19T08:52:59.222Z,33.50
2018-12-19T08:55:25.896Z,31.85
2018-12-19T08:57:52.592Z,32.70
2018-12-19T09:00:19.267Z,31.55
2018-12-19T09:02:45.955Z,32.85
2018-12-19T09:05:12.617Z,31.52
2018-12-19T09:07:39.285Z,34.23
2018-12-19T09:10:06.842Z,31.85
2018-12-19T09:12:34.470Z,31.68
2018-12-19T09:15:01.131Z,30.75
2018-12-19T09:17:28.098Z,32.25
2018-12-19T09:19:55.142Z,33.98
2018-12-19T09:22:22.116Z,31.27
2018-12-19T09:24:48.781Z,30.05
2018-12-19T09:27:15.445Z,32.48
2018-12-19T09:29:42.140Z,31.37
2018-12-19T09:32:08.797Z,31.52
2018-12-19T09:34:35.486Z,31.57
2018-12-19T09:37:02.154Z,30.75
2018-12-19T09:39:28.819Z,31.37
2018-12-19T09:41:55.513Z,30.65
2018-12-19T09:44:22.172Z,31.25
2018-12-19T09:46:48.831Z,31.07
2018-12-19T09:49:15.505Z,30.23
2018-12-19T09:51:42.174Z,32.23
2018-12-19T09:54:08.832Z,31.68
2018-12-19T09:56:35.602Z,36.33
2018-12-19T09:59:02.263Z,35.05
2018-12-19T10:01:28.981Z,31.07
2018-12-19T10:03:55.664Z,31.48
2018-12-19T10:06:22.358Z,32.00
2018-12-19T10:08:49.022Z,31.42
2018-12-19T10:11:18.712Z,31.52
2018-12-19T10:13:44.414Z,30.95
2018-12-19T10:16:11.081Z,31.73
2018-12-19T10:18:37.882Z,33.67
2018-12-19T10:21:04.588Z,31.15
2018-12-19T10:23:31.282Z,33.30
2018-12-19T10:26:15.747Z,32.03
2018-12-19T10:28:42.453Z,30.32
2018-12-19T10:31:09.135Z,32.25
2018-12-19T10:33:35.801Z,30.60
2018-12-19T10:36:02.469Z,29.65
2018-12-19T10:38:29.140Z,31.37
2018-12-19T10:40:55.816Z,30.82
2018-12-19T10:43:22.502Z,30.43
2018-12-19T10:45:49.161Z,30.17
2018-12-19T10:48:15.824Z,30.92
2018-12-19T10:50:42.530Z,31.20
2018-12-19T10:53:09.191Z,28.90
2018-12-19T10:55:35.899Z,29.95
2018-12-19T10:58:02.560Z,31.68
2018-12-19T11:00:34.963Z,28.77
2018-12-19T11:03:01.657Z,31.55
2018-12-19T11:05:28.320Z,30.77
2018-12-19T11:07:54.984Z,30.90
2018-12-19T11:10:21.665Z,27.73
2018-12-19T11:12:48.317Z,29.87
2018-12-19T11:15:14.983Z,31.75
2018-12-19T11:17:41.673Z,32.93
2018-12-19T11:20:09.018Z,30.15
2018-12-19T11:22:35.674Z,31.55
2018-12-19T11:25:02.646Z,32.58
2018-12-19T11:27:29.307Z,32.95
2018-12-19T11:29:56.010Z,32.58
2018-12-19T11:32:22.698Z,30.88
2018-12-19T11:34:49.374Z,31.48
2018-12-19T11:37:16.041Z,31.97
2018-12-19T11:39:42.738Z,31.95
2018-12-19T11:42:09.499Z,33.08
2018-12-19T11:44:36.173Z,34.85
2018-12-19T11:47:02.858Z,35.00
2018-12-19T11:49:29.539Z,32.60
2018-12-19T11:51:56.197Z,33.20
2018-12-19T11:54:22.878Z,33.80
2018-12-19T11:56:49.583Z,32.65
2018-12-19T11:59:16.240Z,33.28
2018-12-19T12:01:42.914Z,33.80
2018-12-19T12:04:09.589Z,32.42
2018-12-19T12:06:36.247Z,33.33
2018-12-19T12:09:04.888Z,34.10
2018-12-19T12:11:31.565Z,34.50
2018-12-19T12:13:58.258Z,33.38
2018-12-19T12:16:24.919Z,32.78
2018-12-19T12:18:51.583Z,32.63
2018-12-19T12:21:18.271Z,33.23
2018-12-19T12:23:47.384Z,34.70
2018-12-19T12:26:13.637Z,30.15
2018-12-19T12:28:40.296Z,31.70
2018-12-19T12:31:06.949Z,31.65
2018-12-19T12:33:33.648Z,30.80
2018-12-19T12:36:00.317Z,31.85
2018-12-19T12:38:33.899Z,30.85
2018-12-19T12:40:55.711Z,30.62
2018-12-19T12:43:22.399Z,31.07
2018-12-19T12:45:49.076Z,30.08
2018-12-19T12:48:15.742Z,30.10
2018-12-19T12:50:42.434Z,29.75
2018-12-19T12:53:09.101Z,27.07
2018-12-19T12:55:35.766Z,27.95
2018-12-19T12:58:02.544Z,22.35
2018-12-19T13:00:29.221Z,29.45
2018-12-19T13:02:55.901Z,30.15
2018-12-19T13:05:23.441Z,31.70
2018-12-19T13:07:50.096Z,32.40
2018-12-19T13:10:16.772Z,29.30
2018-12-19T13:12:43.425Z,27.45
2018-12-19T13:15:10.159Z,28.57
2018-12-19T13:17:36.888Z,29.87
2018-12-19T13:20:04.848Z,30.60
2018-12-19T13:22:31.543Z,30.05
2018-12-19T13:24:58.206Z,30.48
2018-12-19T13:27:24.872Z,29.85
2018-12-19T13:29:51.545Z,29.80
2018-12-19T13:32:18.400Z,32.65
2018-12-19T13:34:45.085Z,33.00
2018-12-19T13:37:11.742Z,31.42
2018-12-19T13:39:38.425Z,32.05
2018-12-19T13:42:05.814Z,29.10
2018-12-19T13:44:32.817Z,34.85
2018-12-19T13:46:59.472Z,31.50
2018-12-19T13:49:26.154Z,32.33
2018-12-19T13:51:52.853Z,29.07
2018-12-19T13:54:19.540Z,30.90
2018-12-19T13:56:46.200Z,27.62
2018-12-19T13:59:12.861Z,29.27
2018-12-19T14:01:39.573Z,26.60
2018-12-19T14:04:06.243Z,27.85
2018-12-19T14:06:32.950Z,28.32
2018-12-19T14:08:59.629Z,32.30
2018-12-19T14:11:26.295Z,29.80
2018-12-19T14:13:53.029Z,29.92
2018-12-19T14:16:19.772Z,30.75
2018-12-19T14:18:46.444Z,31.02
2018-12-19T14:21:13.399Z,30.12
2018-12-19T14:23:40.196Z,31.68
2018-12-19T14:26:06.885Z,27.42
2018-12-19T14:28:33.553Z,34.03
2018-12-19T14:31:00.221Z,31.50
2018-12-19T14:33:26.933Z,30.90
2018-12-19T14:35:53.623Z,32.17
2018-12-19T14:38:20.305Z,32.40
2018-12-19T14:40:46.974Z,30.90
2018-12-19T14:43:13.653Z,33.67
2018-12-19T14:45:40.367Z,33.42
2018-12-19T14:48:07.052Z,33.02
2018-12-19T14:50:33.762Z,34.43
2018-12-19T14:53:00.437Z,33.48
2018-12-19T14:55:27.143Z,32.75
2018-12-19T14:57:53.829Z,32.15
2018-12-19T15:00:20.495Z,33.13
2018-12-19T15:02:47.194Z,32.05
2018-12-19T15:05:13.859Z,57.45
2018-12-19T15:07:40.532Z,26.07
2018-12-19T15:10:07.710Z,31.77
2018-12-19T15:12:34.370Z,31.02
2018-12-19T15:15:01.049Z,29.48
2018-12-19T15:17:27.731Z,30.65
2018-12-19T15:19:54.422Z,31.10
2018-12-19T15:22:21.108Z,31.02
2018-12-19T15:24:47.766Z,30.30
2018-12-19T15:27:14.451Z,30.82
2018-12-19T15:29:41.149Z,31.33
2018-12-19T15:32:07.829Z,32.38
2018-12-19T15:34:34.481Z,32.38
2018-12-19T15:37:01.145Z,32.93
2018-12-19T15:39:27.846Z,33.53
2018-12-19T15:41:54.508Z,33.42
2018-12-19T15:44:21.202Z,33.15
2018-12-19T15:46:47.894Z,32.30
2018-12-19T15:49:14.569Z,33.20
2018-12-19T15:51:41.246Z,29.30
2018-12-19T15:54:07.948Z,31.73
2018-12-19T15:56:34.634Z,28.70
2018-12-19T15:59:01.327Z,31.35
2018-12-19T16:01:27.999Z,33.23
2018-12-19T16:03:54.702Z,31.27
2018-12-19T16:06:21.362Z,33.28
2018-12-19T16:08:48.034Z,30.82
2018-12-19T16:11:14.714Z,31.30
2018-12-19T16:13:41.556Z,30.35
2018-12-19T16:16:08.334Z,29.23
2018-12-19T16:18:35.012Z,31.87
2018-12-19T16:21:01.681Z,31.55
2018-12-19T16:23:28.360Z,29.67
2018-12-19T16:25:55.024Z,28.70
2018-12-19T16:28:21.697Z,29.27
2018-12-19T16:30:48.390Z,29.12
2018-12-19T16:33:15.054Z,28.20
2018-12-19T16:35:41.733Z,29.30
2018-12-19T16:38:08.422Z,27.77
2018-12-19T16:40:35.090Z,27.48
2018-12-19T16:43:01.759Z,27.40
2018-12-19T16:45:28.438Z,29.45
2018-12-19T16:47:55.103Z,29.40
2018-12-19T16:50:21.797Z,30.08
2018-12-19T16:52:48.476Z,29.70
2018-12-19T16:55:15.141Z,30.65
2018-12-19T16:57:41.889Z,30.30
2018-12-19T17:00:09.139Z,29.45
2018-12-19T17:02:35.816Z,29.48
2018-12-19T17:05:02.502Z,30.30
2018-12-19T17:07:29.173Z,29.67
2018-12-19T17:09:55.855Z,29.25
2018-12-19T17:12:22.516Z,27.25
2018-12-19T17:14:49.173Z,30.27
2018-12-19T17:17:15.857Z,27.85
2018-12-19T17:19:42.516Z,32.40
2018-12-19T17:22:09.213Z,25.50
2018-12-19T17:24:40.399Z,30.68
2018-12-19T17:27:07.066Z,32.08
2018-12-19T17:29:33.763Z,31.62
2018-12-19T17:32:00.946Z,31.73
2018-12-19T17:34:27.606Z,31.65
2018-12-19T17:36:54.293Z,28.40
2018-12-19T17:39:20.945Z,26.27
2018-12-19T17:41:47.661Z,33.45
2018-12-19T17:44:14.349Z,30.77
2018-12-19T17:46:41.030Z,27.98
2018-12-19T17:49:07.710Z,26.50
2018-12-19T17:51:34.393Z,29.65
2018-12-19T17:54:01.054Z,29.30
2018-12-19T17:56:27.738Z,26.90
2018-12-19T17:58:54.547Z,29.63
2018-12-19T18:01:21.209Z,30.40
2018-12-19T18:03:47.901Z,34.75
2018-12-19T18:06:14.582Z,33.30
2018-12-19T18:08:41.242Z,31.73
2018-12-19T18:11:07.925Z,29.98
2018-12-19T18:13:34.643Z,26.93
2018-12-19T18:16:01.344Z,27.00
2018-12-19T18:18:28.010Z,28.90
2018-12-19T18:20:54.675Z,30.90
2018-12-19T18:23:21.372Z,29.02
2018-12-19T18:25:48.067Z,27.87
2018-12-19T18:28:14.743Z,30.25
2018-12-19T18:30:41.418Z,30.65
2018-12-19T18:33:08.082Z,28.35
2018-12-19T18:35:34.775Z,26.85
2018-12-19T18:38:01.434Z,27.32
2018-12-19T18:40:28.098Z,30.12
2018-12-19T18:42:54.790Z,23.50
2018-12-19T18:45:21.497Z,29.02
2018-12-19T18:47:48.160Z,29.95
2018-12-19T18:50:14.855Z,31.95
2018-12-19T18:52:41.522Z,35.28
2018-12-19T18:55:08.185Z,39.73
2018-12-19T18:57:34.869Z,34.65
2018-12-19T19:00:01.601Z,33.33
2018-12-19T19:02:28.343Z,24.50
2018-12-19T19:04:55.117Z,30.62
2018-12-19T19:07:21.772Z,31.25
2018-12-19T19:09:49.099Z,32.55
2018-12-19T19:12:15.857Z,29.32
2018-12-19T19:14:42.526Z,29.77
2018-12-19T19:17:09.211Z,29.75
2018-12-19T19:19:35.864Z,26.48
2018-12-19T19:22:02.524Z,27.52
2018-12-19T19:24:29.218Z,28.23
2018-12-19T19:26:55.879Z,27.90
2018-12-19T19:29:22.542Z,29.32
2018-12-19T19:31:49.245Z,30.30
2018-12-19T19:34:15.915Z,28.90
2018-12-19T19:36:42.615Z,28.87
2018-12-19T19:39:09.307Z,34.98
2018-12-19T19:41:35.985Z,34.92
2018-12-19T19:44:02.644Z,35.52
2018-12-19T19:46:29.331Z,38.98
2018-12-19T19:48:56.014Z,28.45
2018-12-19T19:51:22.681Z,31.25
2018-12-19T19:53:49.369Z,28.70
2018-12-19T19:56:16.030Z,29.50
2018-12-19T19:58:42.696Z,27.52
2018-12-19T20:01:09.381Z,29.00
2018-12-19T20:03:36.041Z,22.35
2018-12-19T20:06:02.706Z,28.35
2018-12-19T20:08:29.384Z,27.35
2018-12-19T20:10:56.069Z,28.10
2018-12-19T20:13:22.735Z,27.62
2018-12-19T20:15:49.403Z,27.60
2018-12-19T20:18:16.284Z,23.55
2018-12-19T20:20:42.965Z,29.85
2018-12-19T20:23:09.633Z,29.50
2018-12-19T20:25:36.297Z,28.65
2018-12-19T20:28:02.987Z,23.52
2018-12-19T20:30:29.663Z,29.20
2018-12-19T20:32:56.449Z,27.50
2018-12-19T20:35:23.115Z,29.07
2018-12-19T20:37:49.927Z,30.60
2018-12-19T20:40:16.609Z,31.33
2018-12-19T20:42:43.306Z,29.77
2018-12-19T20:45:09.964Z,30.92
2018-12-19T20:47:36.657Z,35.17
2018-12-19T20:50:04.217Z,46.25
2018-12-19T20:52:31.399Z,31.95
2018-12-19T20:54:58.081Z,30.75
2018-12-19T20:57:24.737Z,33.00
2018-12-19T20:59:51.413Z,29.02
2018-12-19T21:02:18.226Z,30.70
2018-12-19T21:04:44.895Z,30.02
2018-12-19T21:07:11.554Z,28.60
2018-12-19T21:09:38.232Z,30.70
2018-12-19T21:12:04.930Z,30.05
2018-12-19T21:14:33.095Z,32.13
2018-12-19T21:17:05.691Z,32.65
2018-12-19T21:19:32.368Z,33.33
2018-12-19T21:21:59.030Z,33.92
2018-12-19T21:24:25.775Z,32.03
2018-12-19T21:26:52.454Z,31.10
2018-12-19T21:29:19.118Z,31.75
2018-12-19T21:31:45.801Z,32.93
2018-12-19T21:34:12.466Z,32.65
2018-12-19T21:36:39.145Z,32.33
2018-12-19T21:39:06.813Z,32.25
2018-12-19T21:41:33.478Z,32.45
2018-12-19T21:44:00.135Z,32.55
2018-12-19T21:46:26.809Z,31.10
2018-12-19T21:48:53.533Z,32.00
2018-12-19T21:51:20.332Z,32.17
2018-12-19T21:53:47.146Z,31.55
2018-12-19T21:56:13.895Z,30.90
2018-12-19T21:58:40.572Z,31.45
2018-12-19T22:01:07.237Z,30.68
2018-12-19T22:03:33.918Z,30.92
2018-12-19T22:06:00.586Z,32.35
2018-12-19T22:08:27.271Z,32.50
2018-12-19T22:10:53.976Z,23.15
2018-12-19T22:13:20.639Z,32.00
2018-12-19T22:15:47.443Z,37.35
2018-12-19T22:18:19.995Z,36.93
2018-12-19T22:20:46.719Z,32.70
2018-12-19T22:23:13.459Z,33.28
2018-12-19T22:25:40.168Z,34.03
2018-12-19T22:28:07.019Z,36.10
2018-12-19T22:30:33.716Z,35.08
2018-12-19T22:33:00.401Z,34.45
2018-12-19T22:35:27.065Z,32.30
2018-12-19T22:37:53.760Z,33.25
2018-12-19T22:40:20.595Z,32.78
2018-12-19T22:42:47.337Z,33.30
2018-12-19T22:45:14.052Z,36.08
2018-12-19T22:47:40.714Z,35.50
2018-12-19T22:50:07.449Z,34.43
2018-12-19T22:52:34.184Z,35.38
2018-12-19T22:55:00.947Z,34.60
2018-12-19T22:57:27.771Z,34.60
2018-12-19T22:59:54.660Z,35.10
2018-12-19T23:02:27.193Z,33.10
2018-12-19T23:04:53.922Z,31.57
2018-12-19T23:07:20.660Z,33.98
2018-12-19T23:09:47.316Z,34.33
2018-12-19T23:12:14.170Z,34.10
2018-12-19T23:14:41.001Z,35.15
2018-12-19T23:17:13.628Z,26.62
2018-12-19T23:19:40.370Z,32.33
2018-12-19T23:22:07.063Z,36.40
2018-12-19T23:24:33.730Z,36.28
2018-12-19T23:27:00.610Z,35.78
2018-12-19T23:29:27.413Z,36.70
2018-12-19T23:31:54.191Z,32.63
2018-12-19T23:34:20.881Z,35.43
2018-12-19T23:36:47.792Z,36.60
2018-12-19T23:39:14.445Z,37.23
2018-12-19T23:41:41.196Z,36.10
2018-12-19T23:44:07.942Z,37.40
2018-12-19T23:46:34.799Z,34.48
2018-12-19T23:49:01.507Z,34.50
2018-12-19T23:51:28.234Z,38.30
2018-12-19T23:53:55.024Z,33.42
2018-12-19T23:56:21.812Z,30.88
2018-12-19T23:58:48.509Z,36.28
